createdAt,value
2018-01-22T00:00:53.265Z,17.90
2018-01-22T00:03:22.748Z,23.30
2018-01-22T00:05:50.616Z,38.20
2018-01-22T00:08:18.332Z,35.83
2018-01-22T00:10:46.035Z,37.83
2018-01-22T00:13:13.802Z,25.00
2018-01-22T00:15:41.435Z,24.77
2018-01-22T00:18:09.128Z,21.60
2018-01-22T00:20:37.555Z,20.90
2018-01-22T00:23:05.305Z,27.87
2018-01-22T00:25:32.964Z,46.30
2018-01-22T00:28:00.667Z,51.60
2018-01-22T00:30:29.929Z,33.20
2018-01-22T00:32:57.751Z,38.20
2018-01-22T00:35:25.645Z,38.37
2018-01-22T00:37:53.349Z,23.47
2018-01-22T00:40:22.997Z,19.10
2018-01-22T00:42:50.796Z,24.30
2018-01-22T00:45:18.519Z,13.00
2018-01-22T00:47:46.198Z,15.93
2018-01-22T00:50:13.950Z,15.13
2018-01-22T00:52:41.655Z,15.57
2018-01-22T00:55:09.421Z,18.17
2018-01-22T00:57:37.088Z,19.30
2018-01-22T01:00:06.543Z,16.87
2018-01-22T01:02:35.401Z,16.73
2018-01-22T01:05:04.981Z,17.00
2018-01-22T01:07:32.697Z,14.00
2018-01-22T01:10:00.551Z,14.87
2018-01-22T01:12:28.261Z,12.80
2018-01-22T01:14:57.671Z,12.67
2018-01-22T01:17:25.399Z,14.33
2018-01-22T01:19:53.040Z,15.10
2018-01-22T01:22:20.700Z,13.17
2018-01-22T01:24:48.363Z,12.50
2018-01-22T01:27:16.099Z,14.40
2018-01-22T01:29:43.753Z,16.33
2018-01-22T01:32:12.180Z,12.00
2018-01-22T01:34:39.871Z,16.10
2018-01-22T01:37:09.305Z,13.70
2018-01-22T01:39:38.859Z,15.53
2018-01-22T01:42:06.574Z,16.27
2018-01-22T01:44:34.245Z,19.33
2018-01-22T01:47:01.953Z,14.60
2018-01-22T01:49:29.642Z,13.93
2018-01-22T01:51:57.451Z,16.53
2018-01-22T01:54:25.882Z,19.03
2018-01-22T01:56:53.539Z,17.90
2018-01-22T01:59:21.296Z,14.20
2018-01-22T02:01:48.975Z,18.90
2018-01-22T02:04:16.642Z,15.73
2018-01-22T02:06:44.347Z,14.73
2018-01-22T02:09:12.015Z,16.50
2018-01-22T02:11:39.903Z,16.97
2018-01-22T02:14:09.327Z,17.43
2018-01-22T02:16:37.087Z,16.33
2018-01-22T02:19:04.729Z,14.30
2018-01-22T02:21:32.433Z,16.40
2018-01-22T02:24:01.686Z,15.47
2018-01-22T02:26:29.434Z,15.87
2018-01-22T02:28:57.129Z,17.23
2018-01-22T02:31:24.820Z,16.90
2018-01-22T02:33:52.457Z,17.43
2018-01-22T02:36:20.327Z,16.13
2018-01-22T02:38:47.976Z,15.60
2018-01-22T02:41:15.675Z,16.70
2018-01-22T02:43:46.053Z,14.97
2018-01-22T02:46:14.503Z,18.83
2018-01-22T02:48:42.215Z,19.63
2018-01-22T02:51:09.875Z,12.27
2018-01-22T02:53:37.542Z,12.10
2018-01-22T02:56:06.978Z,15.17
2018-01-22T02:58:34.693Z,14.87
2018-01-22T03:01:02.364Z,13.77
2018-01-22T03:03:30.237Z,13.00
2018-01-22T03:05:57.891Z,16.33
2018-01-22T03:08:25.891Z,15.70
2018-01-22T03:10:53.591Z,13.43
2018-01-22T03:13:21.237Z,14.83
2018-01-22T03:15:49.673Z,13.23
2018-01-22T03:18:17.349Z,17.07
2018-01-22T03:20:45.061Z,18.83
2018-01-22T03:23:12.843Z,19.50
2018-01-22T03:25:40.559Z,16.00
2018-01-22T03:28:08.203Z,11.70
2018-01-22T03:30:35.977Z,17.10
2018-01-22T03:33:03.680Z,14.13
2018-01-22T03:35:31.355Z,16.67
2018-01-22T03:37:59.010Z,13.30
2018-01-22T03:40:26.811Z,15.47
2018-01-22T03:42:54.476Z,17.47
2018-01-22T03:45:22.170Z,11.97
2018-01-22T03:47:49.845Z,15.87
2018-01-22T03:50:18.302Z,13.20
2018-01-22T03:52:45.959Z,14.50
2018-01-22T03:55:13.654Z,17.83
2018-01-22T03:57:43.969Z,15.07
2018-01-22T04:00:11.716Z,13.17
2018-01-22T04:02:39.381Z,14.30
2018-01-22T04:05:07.066Z,11.40
2018-01-22T04:07:34.722Z,11.80
2018-01-22T04:10:02.374Z,12.00
2018-01-22T04:12:30.220Z,12.10
2018-01-22T04:14:57.883Z,11.00
2018-01-22T04:17:25.539Z,12.80
2018-01-22T04:19:53.921Z,13.60
2018-01-22T04:22:21.634Z,13.47
2018-01-22T04:24:49.441Z,11.40
2018-01-22T04:27:17.140Z,12.27
2018-01-22T04:29:45.040Z,13.77
2018-01-22T04:32:13.084Z,13.30
2018-01-22T04:34:40.744Z,13.47
2018-01-22T04:37:08.462Z,12.20
2018-01-22T04:39:36.189Z,12.70
2018-01-22T04:42:04.626Z,11.53
2018-01-22T04:44:32.294Z,11.90
2018-01-22T04:47:00.697Z,10.80
2018-01-22T04:49:28.431Z,12.80
2018-01-22T04:52:01.713Z,9.87
2018-01-22T04:54:29.609Z,10.77
2018-01-22T04:56:59.933Z,11.87
2018-01-22T04:59:27.964Z,11.87
2018-01-22T05:01:55.744Z,15.53
2018-01-22T05:04:23.559Z,13.57
2018-01-22T05:06:51.212Z,10.83
2018-01-22T05:09:20.630Z,12.57
2018-01-22T05:11:48.372Z,13.03
2018-01-22T05:14:16.812Z,13.57
2018-01-22T05:16:44.523Z,14.57
2018-01-22T05:19:12.315Z,11.43
2018-01-22T05:21:39.974Z,10.30
2018-01-22T05:24:07.696Z,11.33
2018-01-22T05:26:35.403Z,10.30
2018-01-22T05:29:03.126Z,9.53
2018-01-22T05:31:30.799Z,11.17
2018-01-22T05:33:58.480Z,10.83
2018-01-22T05:36:26.178Z,8.43
2018-01-22T05:38:53.831Z,10.93
2018-01-22T05:41:21.587Z,11.03
2018-01-22T05:43:49.342Z,7.90
2018-01-22T05:46:17.032Z,7.80
2018-01-22T05:48:44.705Z,9.03
2018-01-22T05:51:12.394Z,9.10
2018-01-22T05:53:40.207Z,13.83
2018-01-22T05:56:07.900Z,9.80
2018-01-22T05:58:35.562Z,9.70
2018-01-22T06:01:04.220Z,10.37
2018-01-22T06:03:31.893Z,12.67
2018-01-22T06:05:59.954Z,9.33
2018-01-22T06:08:29.788Z,11.43
2018-01-22T06:10:57.522Z,10.57
2018-01-22T06:13:26.950Z,7.23
2018-01-22T06:15:54.854Z,10.90
2018-01-22T06:18:22.564Z,9.13
2018-01-22T06:20:50.380Z,6.23
2018-01-22T06:23:18.892Z,6.80
2018-01-22T06:25:46.586Z,7.70
2018-01-22T06:28:14.274Z,7.60
2018-01-22T06:30:41.940Z,10.70
2018-01-22T06:33:09.976Z,7.50
2018-01-22T06:35:38.174Z,6.60
2018-01-22T06:38:05.915Z,10.90
2018-01-22T06:40:34.338Z,8.37
2018-01-22T06:43:02.140Z,7.27
2018-01-22T06:45:29.826Z,8.07
2018-01-22T06:47:57.546Z,11.93
2018-01-22T06:52:59.368Z,8.70
2018-01-22T06:55:27.798Z,8.43
2018-01-22T06:57:55.493Z,8.67
2018-01-22T07:00:25.932Z,9.73
2018-01-22T07:02:53.696Z,10.17
2018-01-22T07:05:21.562Z,13.17
2018-01-22T07:07:49.296Z,10.37
2018-01-22T07:10:17.005Z,9.03
2018-01-22T07:12:44.744Z,10.13
2018-01-22T07:15:12.533Z,10.30
2018-01-22T07:17:40.123Z,11.53
2018-01-22T07:20:07.700Z,9.43
2018-01-22T07:22:35.421Z,14.90
2018-01-22T07:25:03.037Z,10.50
2018-01-22T07:27:30.732Z,9.33
2018-01-22T07:29:58.289Z,8.10
2018-01-22T07:32:26.022Z,17.30
2018-01-22T07:34:53.673Z,8.90
2018-01-22T07:37:21.378Z,10.97
2018-01-22T07:39:49.061Z,9.27
2018-01-22T07:42:16.611Z,7.63
2018-01-22T07:44:45.988Z,8.03
2018-01-22T07:47:13.746Z,6.67
2018-01-22T07:49:41.402Z,6.70
2018-01-22T07:52:09.146Z,9.13
2018-01-22T07:54:36.814Z,11.13
2018-01-22T07:57:06.508Z,12.20
2018-01-22T07:59:34.253Z,8.33
2018-01-22T08:02:02.062Z,8.00
2018-01-22T08:04:29.862Z,7.57
2018-01-22T08:06:57.672Z,8.97
2018-01-22T08:09:25.430Z,7.90
2018-01-22T08:11:53.084Z,5.83
2018-01-22T08:14:20.786Z,5.07
2018-01-22T08:16:49.794Z,5.23
2018-01-22T08:19:17.504Z,4.60
2018-01-22T08:21:46.352Z,4.50
2018-01-22T08:24:14.225Z,5.13
2018-01-22T08:26:41.930Z,4.50
2018-01-22T08:29:09.605Z,4.20
2018-01-22T08:31:39.048Z,7.70
2018-01-22T08:34:06.797Z,3.87
2018-01-22T08:36:34.478Z,6.83
2018-01-22T08:39:02.148Z,5.13
2018-01-22T08:41:29.900Z,4.30
2018-01-22T08:43:57.543Z,9.03
2018-01-22T08:46:27.067Z,5.13
2018-01-22T08:48:54.763Z,5.37
2018-01-22T08:51:24.022Z,5.27
2018-01-22T08:53:51.777Z,14.13
2018-01-22T08:56:19.451Z,5.57
2018-01-22T08:58:47.875Z,5.67
2018-01-22T09:01:18.132Z,4.67
2018-01-22T09:03:45.895Z,5.73
2018-01-22T09:06:13.585Z,7.20
2018-01-22T09:08:41.307Z,5.80
2018-01-22T09:11:09.075Z,3.50
2018-01-22T09:13:36.812Z,10.00
2018-01-22T09:16:07.292Z,4.30
2018-01-22T09:18:35.013Z,8.03
2018-01-22T09:21:02.757Z,6.00
2018-01-22T09:23:30.577Z,9.20
2018-01-22T09:25:58.294Z,4.80
2018-01-22T09:28:28.678Z,6.43
2018-01-22T09:30:56.431Z,6.00
2018-01-22T09:33:24.094Z,4.10
2018-01-22T09:35:51.803Z,4.57
2018-01-22T09:38:19.443Z,5.30
2018-01-22T09:40:47.117Z,6.17
2018-01-22T09:43:16.402Z,8.73
2018-01-22T09:45:44.164Z,7.77
2018-01-22T09:48:11.999Z,3.67
2018-01-22T09:50:39.701Z,5.33
2018-01-22T09:53:07.650Z,4.63
2018-01-22T09:55:35.655Z,3.60
2018-01-22T09:58:03.527Z,4.50
2018-01-22T10:00:31.205Z,4.53
2018-01-22T10:03:01.473Z,9.80
2018-01-22T10:05:29.381Z,6.67
2018-01-22T10:07:57.078Z,5.70
2018-01-22T10:10:26.497Z,6.23
2018-01-22T10:12:54.326Z,5.73
2018-01-22T10:15:22.011Z,4.97
2018-01-22T10:17:49.757Z,8.63
2018-01-22T10:20:17.429Z,4.23
2018-01-22T10:22:45.112Z,6.30
2018-01-22T10:25:12.812Z,4.70
2018-01-22T10:27:40.727Z,6.20
2018-01-22T10:30:08.388Z,5.73
2018-01-22T10:32:36.103Z,5.50
2018-01-22T10:35:03.839Z,4.90
2018-01-22T10:37:31.527Z,4.40
2018-01-22T10:39:59.205Z,6.30
2018-01-22T10:42:26.931Z,7.53
2018-01-22T10:44:54.749Z,9.23
2018-01-22T10:47:24.038Z,10.17
2018-01-22T10:49:51.764Z,8.70
2018-01-22T10:52:20.253Z,8.70
2018-01-22T10:54:49.673Z,8.97
2018-01-22T10:57:17.347Z,4.50
2018-01-22T10:59:45.053Z,5.70
2018-01-22T11:02:12.669Z,6.30
2018-01-22T11:04:40.419Z,6.50
2018-01-22T11:07:08.130Z,5.83
2018-01-22T11:09:35.831Z,5.33
2018-01-22T11:12:03.495Z,6.07
2018-01-22T11:14:31.164Z,4.33
2018-01-22T11:16:58.949Z,4.20
2018-01-22T11:19:26.579Z,3.90
2018-01-22T11:21:56.130Z,5.20
2018-01-22T11:24:23.860Z,5.87
2018-01-22T11:26:51.763Z,13.47
2018-01-22T11:29:19.469Z,6.53
2018-01-22T11:31:47.176Z,4.63
2018-01-22T11:34:15.574Z,5.53
2018-01-22T11:36:43.273Z,5.30
2018-01-22T11:39:11.822Z,9.50
2018-01-22T11:41:39.751Z,9.13
2018-01-22T11:44:07.461Z,3.87
2018-01-22T11:46:35.235Z,5.47
2018-01-22T11:49:02.894Z,6.47
2018-01-22T11:51:30.549Z,6.70
2018-01-22T11:53:58.280Z,6.50
2018-01-22T11:56:25.973Z,16.20
2018-01-22T11:58:53.638Z,6.60
2018-01-22T12:01:22.865Z,6.80
2018-01-22T12:03:53.608Z,5.50
2018-01-22T12:06:21.294Z,95.83
2018-01-22T12:08:48.953Z,57.73
2018-01-22T12:11:16.598Z,33.00
2018-01-22T12:13:44.287Z,39.27
2018-01-22T12:16:12.760Z,16.80
2018-01-22T12:18:40.520Z,34.83
2018-01-22T12:21:08.165Z,4.80
2018-01-22T12:23:35.840Z,4.80
2018-01-22T12:26:03.572Z,5.77
2018-01-22T12:28:31.215Z,7.33
2018-01-22T12:31:01.165Z,7.17
2018-01-22T12:33:28.829Z,4.50
2018-01-22T12:35:56.511Z,6.20
2018-01-22T12:38:24.223Z,5.57
2018-01-22T12:40:51.929Z,5.23
2018-01-22T12:43:19.705Z,15.57
2018-01-22T12:45:47.404Z,6.03
2018-01-22T12:48:15.084Z,10.00
2018-01-22T12:50:43.750Z,5.87
2018-01-22T12:53:12.202Z,6.00
2018-01-22T12:55:39.999Z,6.47
2018-01-22T12:58:07.783Z,12.70
2018-01-22T13:00:35.533Z,7.23
2018-01-22T13:03:04.833Z,4.03
2018-01-22T13:05:32.561Z,6.57
2018-01-22T13:08:00.378Z,4.23
2018-01-22T13:10:28.040Z,4.90
2018-01-22T13:12:55.736Z,7.93
2018-01-22T13:15:23.404Z,5.80
2018-01-22T13:17:51.062Z,5.37
2018-01-22T13:20:18.777Z,5.87
2018-01-22T13:22:48.123Z,6.30
2018-01-22T13:25:15.817Z,7.97
2018-01-22T13:27:45.087Z,8.77
2018-01-22T13:30:12.806Z,9.50
2018-01-22T13:32:40.434Z,9.43
2018-01-22T13:35:08.134Z,7.87
2018-01-22T13:37:35.788Z,5.53
2018-01-22T13:40:09.032Z,5.77
2018-01-22T13:42:38.486Z,7.00
2018-01-22T13:45:06.200Z,7.80
2018-01-22T13:47:33.972Z,6.40
2018-01-22T13:50:01.654Z,7.93
2018-01-22T13:52:29.284Z,7.47
2018-01-22T13:54:57.118Z,8.43
2018-01-22T13:57:25.648Z,9.77
2018-01-22T13:59:55.079Z,16.93
2018-01-22T14:02:22.829Z,13.17
2018-01-22T14:04:50.599Z,16.50
2018-01-22T14:07:18.256Z,17.73
2018-01-22T14:09:46.642Z,12.27
2018-01-22T14:12:14.344Z,8.50
2018-01-22T14:14:42.088Z,35.90
2018-01-22T14:17:09.800Z,13.50
2018-01-22T14:19:37.421Z,9.00
2018-01-22T14:22:05.089Z,9.13
2018-01-22T14:24:32.742Z,9.07
2018-01-22T14:27:00.391Z,8.03
2018-01-22T14:29:30.831Z,6.90
2018-01-22T14:31:58.530Z,8.20
2018-01-22T14:34:26.196Z,12.80
2018-01-22T14:36:56.030Z,12.80
2018-01-22T14:39:23.709Z,12.60
2018-01-22T14:41:51.470Z,6.97
2018-01-22T14:44:19.177Z,5.93
2018-01-22T14:46:46.870Z,6.13
2018-01-22T14:49:14.819Z,8.07
2018-01-22T14:51:42.534Z,6.50
2018-01-22T14:54:11.901Z,9.20
2018-01-22T14:56:39.592Z,6.03
2018-01-22T14:59:07.467Z,6.60
2018-01-22T15:01:35.150Z,5.60
2018-01-22T15:04:03.064Z,6.40
2018-01-22T15:06:33.362Z,7.03
2018-01-22T15:09:01.219Z,6.07
2018-01-22T15:11:28.968Z,6.30
2018-01-22T15:13:56.655Z,6.17
2018-01-22T15:16:24.357Z,9.43
2018-01-22T15:18:52.058Z,7.40
2018-01-22T15:21:19.739Z,6.53
2018-01-22T15:23:47.414Z,6.03
2018-01-22T15:26:15.245Z,6.37
2018-01-22T15:28:42.947Z,7.00
2018-01-22T15:31:10.816Z,6.20
2018-01-22T15:33:39.207Z,9.47
2018-01-22T15:36:06.894Z,10.70
2018-01-22T15:38:34.627Z,9.80
2018-01-22T15:41:02.372Z,15.00
2018-01-22T15:43:30.107Z,13.67
2018-01-22T15:45:57.871Z,18.80
2018-01-22T15:48:27.297Z,12.70
2018-01-22T15:50:55.033Z,16.20
2018-01-22T15:53:22.842Z,14.90
2018-01-22T15:55:53.203Z,16.33
2018-01-22T15:58:20.902Z,10.90
2018-01-22T16:00:49.351Z,11.70
2018-01-22T16:03:16.990Z,10.23
2018-01-22T16:05:44.900Z,18.43
2018-01-22T16:08:12.626Z,11.43
2018-01-22T16:10:40.306Z,11.60
2018-01-22T16:13:07.970Z,10.63
2018-01-22T16:15:35.657Z,12.67
2018-01-22T16:18:04.055Z,12.77
2018-01-22T16:20:31.705Z,27.27
2018-01-22T16:22:59.395Z,14.93
2018-01-22T16:25:27.061Z,12.13
2018-01-22T16:27:54.748Z,14.93
2018-01-22T16:30:22.415Z,25.47
2018-01-22T16:32:50.112Z,14.57
2018-01-22T16:35:19.528Z,15.57
2018-01-22T16:37:47.248Z,18.23
2018-01-22T16:40:15.792Z,18.60
2018-01-22T16:42:43.489Z,20.17
2018-01-22T16:45:11.319Z,19.73
2018-01-22T16:47:44.692Z,12.93
2018-01-22T16:50:12.377Z,20.50
2018-01-22T16:52:40.143Z,27.10
2018-01-22T16:55:08.651Z,15.10
2018-01-22T16:57:36.355Z,13.33
2018-01-22T17:00:04.147Z,13.20
2018-01-22T17:02:31.825Z,11.97
2018-01-22T17:04:59.564Z,15.10
2018-01-22T17:07:27.300Z,11.73
2018-01-22T17:09:55.046Z,14.07
2018-01-22T17:12:22.765Z,12.90
2018-01-22T17:14:53.175Z,13.33
2018-01-22T17:17:20.907Z,21.37
2018-01-22T17:19:48.665Z,16.40
2018-01-22T17:22:16.423Z,13.87
2018-01-22T17:24:44.260Z,13.60
2018-01-22T17:27:16.848Z,11.77
2018-01-22T17:29:45.030Z,13.97
2018-01-22T17:32:13.162Z,11.80
2018-01-22T17:34:41.053Z,11.27
2018-01-22T17:37:08.799Z,13.30
2018-01-22T17:39:36.474Z,12.27
2018-01-22T17:42:04.221Z,16.53
2018-01-22T17:44:31.953Z,22.43
2018-01-22T17:46:59.582Z,18.77
2018-01-22T17:49:27.317Z,17.70
2018-01-22T17:51:55.048Z,14.60
2018-01-22T17:54:22.772Z,13.87
2018-01-22T17:56:50.494Z,13.53
2018-01-22T17:59:18.215Z,15.13
2018-01-22T18:01:49.585Z,12.97
2018-01-22T18:04:17.292Z,12.80
2018-01-22T18:06:45.010Z,15.77
2018-01-22T18:09:12.868Z,13.27
2018-01-22T18:11:40.566Z,13.70
2018-01-22T18:14:08.303Z,13.40
2018-01-22T18:16:36.089Z,16.13
2018-01-22T18:19:03.770Z,14.87
2018-01-22T18:21:31.425Z,16.00
2018-01-22T18:23:59.341Z,17.40
2018-01-22T18:26:27.104Z,23.53
2018-01-22T18:29:00.774Z,18.27
2018-01-22T18:31:28.547Z,18.00
2018-01-22T18:33:56.274Z,16.70
2018-01-22T18:36:24.066Z,19.00
2018-01-22T18:38:51.940Z,22.00
2018-01-22T18:41:19.827Z,22.03
2018-01-22T18:43:49.300Z,16.70
2018-01-22T18:46:17.110Z,26.50
2018-01-22T18:48:44.731Z,22.87
2018-01-22T18:51:14.421Z,18.90
2018-01-22T18:53:42.225Z,19.23
2018-01-22T18:56:12.794Z,19.50
2018-01-22T18:58:40.509Z,18.80
2018-01-22T19:01:08.898Z,18.23
2018-01-22T19:03:36.754Z,17.17
2018-01-22T19:06:07.076Z,16.77
2018-01-22T19:08:36.572Z,17.80
2018-01-22T19:11:04.372Z,15.90
2018-01-22T19:13:34.988Z,14.60
2018-01-22T19:16:03.612Z,17.00
2018-01-22T19:18:31.415Z,18.17
2018-01-22T19:20:59.265Z,15.20
2018-01-22T19:23:27.088Z,19.00
2018-01-22T19:25:54.827Z,15.70
2018-01-22T19:28:28.263Z,19.40
2018-01-22T19:30:57.812Z,18.80
2018-01-22T19:33:26.078Z,21.80
2018-01-22T19:35:55.726Z,24.80
2018-01-22T19:38:23.786Z,27.00
2018-01-22T19:40:51.760Z,25.37
2018-01-22T19:43:19.833Z,21.57
2018-01-22T19:45:48.820Z,26.57
2018-01-22T19:48:16.897Z,21.90
2018-01-22T19:50:46.632Z,17.73
2018-01-22T19:53:14.705Z,21.20
2018-01-22T19:55:42.671Z,18.40
2018-01-22T19:58:13.337Z,16.70
2018-01-22T20:00:41.606Z,15.67
2018-01-22T20:03:09.790Z,16.60
2018-01-22T20:05:37.895Z,16.07
2018-01-22T20:08:05.909Z,17.10
2018-01-22T20:10:34.905Z,15.33
2018-01-22T20:13:02.980Z,17.43
2018-01-22T20:15:30.971Z,14.47
2018-01-22T20:17:58.974Z,21.43
2018-01-22T20:20:27.113Z,20.50
2018-01-22T20:22:56.261Z,19.13
2018-01-22T20:25:27.968Z,18.90
2018-01-22T20:27:56.069Z,21.30
2018-01-22T20:30:24.217Z,20.50
2018-01-22T20:32:52.190Z,20.73
2018-01-22T20:35:20.364Z,18.60
2018-01-22T20:37:49.277Z,17.60
2018-01-22T20:40:19.026Z,19.23
2018-01-22T20:42:47.119Z,18.87
2018-01-22T20:45:17.602Z,17.30
2018-01-22T20:47:45.732Z,17.57
2018-01-22T20:50:13.726Z,18.93
2018-01-22T20:52:43.303Z,20.23
2018-01-22T20:55:11.410Z,18.53
2018-01-22T20:57:40.735Z,18.63
2018-01-22T21:00:08.775Z,16.53
2018-01-22T21:02:36.753Z,21.17
2018-01-22T21:05:04.708Z,21.70
2018-01-22T21:07:32.546Z,16.07
2018-01-22T21:10:03.353Z,20.57
2018-01-22T21:12:32.842Z,19.70
2018-01-22T21:15:01.682Z,17.17
2018-01-22T21:17:29.534Z,23.67
2018-01-22T21:19:57.519Z,24.17
2018-01-22T21:22:26.291Z,21.83
2018-01-22T21:24:54.166Z,18.77
2018-01-22T21:27:23.880Z,16.60
2018-01-22T21:29:51.766Z,23.90
2018-01-22T21:32:19.722Z,21.87
2018-01-22T21:34:47.517Z,17.50
2018-01-22T21:37:15.341Z,26.40
2018-01-22T21:39:43.017Z,22.80
2018-01-22T21:42:11.498Z,19.73
2018-01-22T21:44:40.043Z,17.87
2018-01-22T21:47:07.888Z,21.23
2018-01-22T21:49:35.680Z,16.73
2018-01-22T21:52:06.401Z,11.23
2018-01-22T21:54:34.134Z,12.93
2018-01-22T21:57:01.872Z,18.47
2018-01-22T21:59:29.552Z,20.83
2018-01-22T22:01:57.312Z,18.70
2018-01-22T22:04:26.111Z,18.60
2018-01-22T22:06:53.816Z,19.20
2018-01-22T22:09:22.400Z,18.23
2018-01-22T22:11:51.119Z,20.23
2018-01-22T22:14:19.130Z,18.60
2018-01-22T22:16:46.917Z,17.87
2018-01-22T22:19:16.534Z,19.77
2018-01-22T22:21:44.428Z,18.93
2018-01-22T22:24:17.553Z,18.90
2018-01-22T22:26:45.285Z,16.83
2018-01-22T22:29:13.102Z,23.70
2018-01-22T22:31:40.897Z,19.57
2018-01-22T22:34:08.772Z,17.97
2018-01-22T22:36:36.587Z,42.55
2018-01-22T22:39:04.565Z,24.80
2018-01-22T22:41:36.410Z,20.00
2018-01-22T22:44:04.437Z,19.73
2018-01-22T22:46:33.804Z,17.37
2018-01-22T22:49:06.448Z,23.20
2018-01-22T22:51:34.265Z,22.87
2018-01-22T22:54:02.706Z,20.53
2018-01-22T22:56:30.460Z,19.90
2018-01-22T22:58:58.210Z,22.50
2018-01-22T23:01:27.320Z,19.73
2018-01-22T23:03:56.000Z,21.40
2018-01-22T23:06:23.974Z,19.80
2018-01-22T23:08:53.446Z,31.93
2018-01-22T23:11:23.099Z,20.67
2018-01-22T23:13:51.610Z,23.57
2018-01-22T23:16:19.902Z,23.43
2018-01-22T23:18:47.838Z,23.90
2018-01-22T23:21:15.820Z,24.70
2018-01-22T23:23:43.538Z,22.50
2018-01-22T23:26:11.632Z,23.47
2018-01-22T23:28:39.333Z,24.90
2018-01-22T23:31:07.024Z,24.83
2018-01-22T23:33:34.757Z,24.23
2018-01-22T23:36:03.340Z,24.50
2018-01-22T23:38:31.855Z,29.03
2018-01-22T23:40:59.662Z,26.40
2018-01-22T23:43:27.860Z,27.20
2018-01-22T23:45:58.656Z,28.13
2018-01-22T23:48:27.490Z,25.53
2018-01-22T23:50:59.758Z,24.60
2018-01-22T23:53:30.356Z,28.43
2018-01-22T23:55:58.105Z,24.67
2018-01-22T23:58:26.354Z,26.27
